Terminal Aerodrome Forecast
Issued by NWS

Home | Current Version | Previous Version | Graphics & Text | Print | Product List | Glossary Off
Versions: 1 2 3 4 5 6 7 8 9 10 11 12 13 14 15 16 17 18 19 20 21 22 23 24 25 26 27

721
FTUS43 KBIS 141904 AAA
TAFJMS
TAF AMD
KJMS 141904Z 1419/1518 32009KT P6SM SCT014 OVC027
     FM142300 33009KT P6SM OVC025
     FM150800 28007KT P6SM OVC035
     FM151300 20007KT P6SM OVC035=

USA.gov is the U.S. government's official web portal to all federal, state and local government web resources and services.